Pagrindinis puslapis
METAR-TAF:

METAR-TAF

Oro uostai :

Santorinas, Graikija

platuma: 36-24N, ilguma: 025-29E, Aukštis: 38 m

Dabartinis oras

Ataskaita buvo paskelbta 32 minutes, ne 09:20 UTC
Vėjas 12 kt iš Vakarų/Pietvakarių
Temperatūra 21°C
Drėgmė 73%
Slėgis 1011 hPa
Matomumas 10 km arba daugiau
Mažai debesys ne aukštis 1500 ft
Išsisklaidę debesys ne aukštis 2000 ft

METAR: LGSR 130920Z 25012KT 9999 FEW015 SCT020 21/16 Q1011

Laikas: 12:52 (09:52 UTC)

Prognozė

Ataskaita buvo paskelbta 4 valandos ir 52 minutes, ne 05:00 UTC
Prognozė galioja nuo 13 metu 06 UTC su 14 metu 06 UTC
Vėjas 15 kt iš Vakarų/Pietvakarių
Matomumas 10 km arba daugiau
Mažai debesys ne aukštis 2000 ft
Laikinai
nuo 13 metu 16 UTC su 14 metu 04 UTC
Vėjas 16 kt iš Vakarų/Pietvakarių su gūsio iki 26 kt

TAF: LGSR 130500Z 1306/1406 24015KT 9999 FEW020 TEMPO 1316/1404 24016G26KT

Orai ataskaitas ir orų prognozės (METAR, TAF).

turimą stotys yra geltonos ir raudonos taškus žemėlapyje.

Perkelti pele per norėdami pamatyti stoties vardą.

Tada spustelėkite, norėdami matyti oro stebėjimo ir prognozės.

Norėdami pakeisti žemėlapį: spustelėkite ant žalios mygtukų su juodo kryžiaus žemyn,; žalią mygtuką su brūkšneliu, jei norite nutolinti; arba žalių rodyklių gretimoms žemėlapius.


METAR-TAF: